Pagrindinis puslapis
METAR-TAF:

METAR-TAF

Oro uostai :

Kermanas, Iranas

platuma: 30-15N, ilguma: 056-58E, Aukštis: 1748 m

Dabartinis oras

Ataskaita buvo paskelbta 20 minutes, ne 21:00 UTC
Vėjas 4 kt iš Vakarų/Pietvakarių
Temperatūra 22°C
Drėgmė 14%
Slėgis 1015 hPa
Matomumas 10 km arba daugiau
nėra debesų žemiau 1500 m ir nėra kamuolinių lietaus debesų

METAR: OIKK 172100Z 25004KT CAVOK 22/M07 Q1015 A2998

Laikas: 01:50 (21:20 UTC)

Prognozė

Ataskaita buvo paskelbta 4 valandos ir 10 minutes, ne 17:10 UTC
Prognozė galioja nuo 17 metu 18 UTC su 18 metu 24 UTC
Vėjas 10 kt iš Šiaurės
Matomumas: 8000 m
Laikinai
nuo 17 metu 18 UTC su 17 metu 20 UTC
Vėjas 18 kt iš Šiaurės
Laikinai
nuo 18 metu 09 UTC su 18 metu 16 UTC
Vėjas 20 kt iš Šiaurės

TAF: OIKK 171710Z 1718/1824 01010KT 8000 NSC TEMPO 1718/1720 01018KT TEMPO 1809/1816 01020KT

Orai ataskaitas ir orų prognozės (METAR, TAF).

turimą stotys yra geltonos ir raudonos taškus žemėlapyje.

Perkelti pele per norėdami pamatyti stoties vardą.

Tada spustelėkite, norėdami matyti oro stebėjimo ir prognozės.

Norėdami pakeisti žemėlapį: spustelėkite ant žalios mygtukų su juodo kryžiaus žemyn,; žalią mygtuką su brūkšneliu, jei norite nutolinti; arba žalių rodyklių gretimoms žemėlapius.


METAR-TAF: